sensor_id;sensor_type;location;lat;lon;timestamp;P1;durP1;ratioP1;P2;durP2;ratioP2
29908;SDS011;36247;51.952;6.146;2022-09-09T00:00:23;4.32;;;3.33;;
29908;SDS011;36247;51.952;6.146;2022-09-09T00:03:11;3.90;;;3.50;;
29908;SDS011;36247;51.952;6.146;2022-09-09T00:05:44;8.25;;;3.58;;
29908;SDS011;36247;51.952;6.146;2022-09-09T00:08:27;4.20;;;3.17;;
29908;SDS011;36247;51.952;6.146;2022-09-09T00:11:04;5.10;;;3.40;;
29908;SDS011;36247;51.952;6.146;2022-09-09T00:16:34;5.68;;;3.20;;
29908;SDS011;36247;51.952;6.146;2022-09-09T00:22:29;4.28;;;3.08;;
29908;SDS011;36247;51.952;6.146;2022-09-09T00:30:16;5.20;;;2.90;;
29908;SDS011;36247;51.952;6.146;2022-09-09T00:32:48;4.25;;;2.80;;
29908;SDS011;36247;51.952;6.146;2022-09-09T00:37:50;5.22;;;3.28;;
29908;SDS011;36247;51.952;6.146;2022-09-09T00:40:30;6.20;;;3.45;;
29908;SDS011;36247;51.952;6.146;2022-09-09T00:43:22;5.47;;;3.08;;
29908;SDS011;36247;51.952;6.146;2022-09-09T00:49:04;6.63;;;2.72;;
29908;SDS011;36247;51.952;6.146;2022-09-09T00:54:33;6.65;;;2.97;;
29908;SDS011;36247;51.952;6.146;2022-09-09T00:57:31;3.40;;;2.25;;
29908;SDS011;36247;51.952;6.146;2022-09-09T01:00:02;3.53;;;2.47;;
29908;SDS011;36247;51.952;6.146;2022-09-09T01:02:34;1.80;;;1.70;;
29908;SDS011;36247;51.952;6.146;2022-09-09T01:05:22;3.47;;;2.38;;
29908;SDS011;36247;51.952;6.146;2022-09-09T01:07:54;2.28;;;1.85;;
29908;SDS011;36247;51.952;6.146;2022-09-09T01:10:41;2.05;;;1.95;;
29908;SDS011;36247;51.952;6.146;2022-09-09T01:13:36;3.10;;;1.92;;
29908;SDS011;36247;51.952;6.146;2022-09-09T01:16:07;4.35;;;2.08;;
29908;SDS011;36247;51.952;6.146;2022-09-09T01:18:44;3.20;;;2.13;;
29908;SDS011;36247;51.952;6.146;2022-09-09T01:26:37;3.30;;;2.00;;
29908;SDS011;36247;51.952;6.146;2022-09-09T01:31:36;5.05;;;2.20;;
29908;SDS011;36247;51.952;6.146;2022-09-09T01:34:22;4.93;;;2.40;;
29908;SDS011;36247;51.952;6.146;2022-09-09T01:36:57;2.92;;;2.00;;
29908;SDS011;36247;51.952;6.146;2022-09-09T01:39:27;2.97;;;1.90;;
29908;SDS011;36247;51.952;6.146;2022-09-09T01:41:59;3.15;;;2.25;;
29908;SDS011;36247;51.952;6.146;2022-09-09T01:44:26;2.75;;;2.22;;
29908;SDS011;36247;51.952;6.146;2022-09-09T01:46:53;4.53;;;2.03;;
29908;SDS011;36247;51.952;6.146;2022-09-09T01:49:20;4.55;;;2.47;;
29908;SDS011;36247;51.952;6.146;2022-09-09T01:51:48;3.95;;;2.70;;
29908;SDS011;36247;51.952;6.146;2022-09-09T01:54:21;3.38;;;2.25;;
29908;SDS011;36247;51.952;6.146;2022-09-09T01:57:02;2.35;;;2.13;;
29908;SDS011;36247;51.952;6.146;2022-09-09T02:05:14;3.10;;;2.80;;
29908;SDS011;36247;51.952;6.146;2022-09-09T02:07:55;3.55;;;3.00;;
29908;SDS011;36247;51.952;6.146;2022-09-09T02:10:52;4.47;;;2.67;;
29908;SDS011;36247;51.952;6.146;2022-09-09T02:13:35;4.43;;;3.08;;
29908;SDS011;36247;51.952;6.146;2022-09-09T02:18:56;4.80;;;3.10;;
29908;SDS011;36247;51.952;6.146;2022-09-09T02:21:37;5.77;;;2.80;;
29908;SDS011;36247;51.952;6.146;2022-09-09T02:24:06;3.38;;;2.72;;
29908;SDS011;36247;51.952;6.146;2022-09-09T02:26:41;4.82;;;2.33;;
29908;SDS011;36247;51.952;6.146;2022-09-09T02:29:14;3.85;;;2.50;;
29908;SDS011;36247;51.952;6.146;2022-09-09T02:31:45;3.90;;;2.20;;
29908;SDS011;36247;51.952;6.146;2022-09-09T02:34:19;7.97;;;2.83;;
29908;SDS011;36247;51.952;6.146;2022-09-09T02:36:49;4.28;;;2.70;;
29908;SDS011;36247;51.952;6.146;2022-09-09T02:39:18;4.63;;;2.53;;
29908;SDS011;36247;51.952;6.146;2022-09-09T02:41:43;5.25;;;3.05;;
29908;SDS011;36247;51.952;6.146;2022-09-09T02:44:13;3.58;;;2.83;;
29908;SDS011;36247;51.952;6.146;2022-09-09T02:49:43;5.82;;;2.90;;
29908;SDS011;36247;51.952;6.146;2022-09-09T02:52:17;4.70;;;2.90;;
29908;SDS011;36247;51.952;6.146;2022-09-09T02:54:46;5.30;;;3.30;;
29908;SDS011;36247;51.952;6.146;2022-09-09T02:57:25;6.57;;;2.90;;
29908;SDS011;36247;51.952;6.146;2022-09-09T02:59:53;6.63;;;3.78;;
29908;SDS011;36247;51.952;6.146;2022-09-09T03:02:22;6.53;;;3.60;;
29908;SDS011;36247;51.952;6.146;2022-09-09T03:04:53;7.20;;;3.60;;
29908;SDS011;36247;51.952;6.146;2022-09-09T03:07:19;5.13;;;3.35;;
29908;SDS011;36247;51.952;6.146;2022-09-09T03:09:45;6.15;;;3.00;;
29908;SDS011;36247;51.952;6.146;2022-09-09T03:12:11;6.43;;;3.45;;
29908;SDS011;36247;51.952;6.146;2022-09-09T03:14:37;4.80;;;3.25;;
29908;SDS011;36247;51.952;6.146;2022-09-09T03:17:04;6.65;;;4.10;;
29908;SDS011;36247;51.952;6.146;2022-09-09T03:19:35;4.45;;;3.83;;
29908;SDS011;36247;51.952;6.146;2022-09-09T03:22:03;5.88;;;3.35;;
29908;SDS011;36247;51.952;6.146;2022-09-09T03:24:30;8.88;;;5.00;;
29908;SDS011;36247;51.952;6.146;2022-09-09T03:26:56;6.50;;;3.80;;
29908;SDS011;36247;51.952;6.146;2022-09-09T03:29:22;4.40;;;3.90;;
29908;SDS011;36247;51.952;6.146;2022-09-09T03:31:50;6.60;;;4.28;;
29908;SDS011;36247;51.952;6.146;2022-09-09T03:34:16;7.07;;;4.43;;
29908;SDS011;36247;51.952;6.146;2022-09-09T03:36:42;5.85;;;4.30;;
29908;SDS011;36247;51.952;6.146;2022-09-09T03:39:07;9.75;;;6.18;;
29908;SDS011;36247;51.952;6.146;2022-09-09T03:41:34;10.07;;;4.55;;
29908;SDS011;36247;51.952;6.146;2022-09-09T03:44:01;11.20;;;4.55;;
29908;SDS011;36247;51.952;6.146;2022-09-09T03:46:30;8.65;;;4.85;;
29908;SDS011;36247;51.952;6.146;2022-09-09T03:48:58;9.68;;;4.63;;
29908;SDS011;36247;51.952;6.146;2022-09-09T03:51:23;9.10;;;5.03;;
29908;SDS011;36247;51.952;6.146;2022-09-09T03:53:49;13.00;;;5.43;;
29908;SDS011;36247;51.952;6.146;2022-09-09T03:56:15;7.10;;;4.68;;
29908;SDS011;36247;51.952;6.146;2022-09-09T03:58:40;11.82;;;6.00;;
29908;SDS011;36247;51.952;6.146;2022-09-09T04:01:09;13.18;;;5.35;;
29908;SDS011;36247;51.952;6.146;2022-09-09T04:03:40;11.45;;;5.15;;
29908;SDS011;36247;51.952;6.146;2022-09-09T04:06:07;7.63;;;4.95;;
29908;SDS011;36247;51.952;6.146;2022-09-09T04:08:34;13.80;;;5.65;;
29908;SDS011;36247;51.952;6.146;2022-09-09T04:11:01;10.77;;;5.40;;
29908;SDS011;36247;51.952;6.146;2022-09-09T04:13:35;9.88;;;5.40;;
29908;SDS011;36247;51.952;6.146;2022-09-09T04:16:08;8.10;;;5.22;;
29908;SDS011;36247;51.952;6.146;2022-09-09T04:18:36;8.30;;;5.63;;
29908;SDS011;36247;51.952;6.146;2022-09-09T04:21:02;11.10;;;5.97;;
29908;SDS011;36247;51.952;6.146;2022-09-09T04:23:30;12.05;;;5.90;;
29908;SDS011;36247;51.952;6.146;2022-09-09T04:25:57;14.20;;;5.63;;
29908;SDS011;36247;51.952;6.146;2022-09-09T04:28:26;16.13;;;5.40;;
29908;SDS011;36247;51.952;6.146;2022-09-09T04:30:54;11.10;;;5.63;;
29908;SDS011;36247;51.952;6.146;2022-09-09T04:33:19;9.95;;;6.18;;
29908;SDS011;36247;51.952;6.146;2022-09-09T04:35:48;13.32;;;5.18;;
29908;SDS011;36247;51.952;6.146;2022-09-09T04:38:16;11.68;;;5.80;;
29908;SDS011;36247;51.952;6.146;2022-09-09T04:40:45;9.13;;;5.35;;
29908;SDS011;36247;51.952;6.146;2022-09-09T04:43:12;10.85;;;5.85;;
29908;SDS011;36247;51.952;6.146;2022-09-09T04:45:40;8.43;;;5.40;;
29908;SDS011;36247;51.952;6.146;2022-09-09T04:48:07;7.78;;;5.10;;
29908;SDS011;36247;51.952;6.146;2022-09-09T04:50:33;9.02;;;5.82;;
29908;SDS011;36247;51.952;6.146;2022-09-09T04:53:04;11.13;;;5.50;;
29908;SDS011;36247;51.952;6.146;2022-09-09T04:55:32;7.72;;;5.70;;
29908;SDS011;36247;51.952;6.146;2022-09-09T04:58:04;12.02;;;5.70;;
29908;SDS011;36247;51.952;6.146;2022-09-09T05:00:31;8.10;;;5.57;;
29908;SDS011;36247;51.952;6.146;2022-09-09T05:03:02;10.85;;;5.47;;
29908;SDS011;36247;51.952;6.146;2022-09-09T05:05:29;17.42;;;5.25;;
29908;SDS011;36247;51.952;6.146;2022-09-09T05:08:00;11.32;;;4.68;;
29908;SDS011;36247;51.952;6.146;2022-09-09T05:10:29;11.35;;;5.03;;
29908;SDS011;36247;51.952;6.146;2022-09-09T05:12:56;11.18;;;4.57;;
29908;SDS011;36247;51.952;6.146;2022-09-09T05:15:25;10.73;;;4.60;;
29908;SDS011;36247;51.952;6.146;2022-09-09T05:17:51;7.78;;;4.22;;
29908;SDS011;36247;51.952;6.146;2022-09-09T05:20:18;14.02;;;4.15;;
29908;SDS011;36247;51.952;6.146;2022-09-09T05:22:44;11.77;;;4.57;;
29908;SDS011;36247;51.952;6.146;2022-09-09T05:25:09;7.72;;;3.95;;
29908;SDS011;36247;51.952;6.146;2022-09-09T05:27:35;9.10;;;4.38;;
29908;SDS011;36247;51.952;6.146;2022-09-09T05:30:01;12.68;;;4.35;;
29908;SDS011;36247;51.952;6.146;2022-09-09T05:32:27;8.85;;;4.68;;
29908;SDS011;36247;51.952;6.146;2022-09-09T05:34:58;8.73;;;3.80;;
29908;SDS011;36247;51.952;6.146;2022-09-09T05:37:24;9.95;;;4.32;;
29908;SDS011;36247;51.952;6.146;2022-09-09T05:39:49;11.43;;;4.60;;
29908;SDS011;36247;51.952;6.146;2022-09-09T05:42:16;8.88;;;4.00;;
29908;SDS011;36247;51.952;6.146;2022-09-09T05:44:43;10.20;;;3.70;;
29908;SDS011;36247;51.952;6.146;2022-09-09T05:47:10;9.27;;;4.03;;
29908;SDS011;36247;51.952;6.146;2022-09-09T05:49:35;10.82;;;5.25;;
29908;SDS011;36247;51.952;6.146;2022-09-09T05:52:01;10.23;;;3.50;;
29908;SDS011;36247;51.952;6.146;2022-09-09T05:54:29;9.73;;;3.72;;
29908;SDS011;36247;51.952;6.146;2022-09-09T05:56:55;10.20;;;3.38;;
29908;SDS011;36247;51.952;6.146;2022-09-09T05:59:21;12.32;;;4.20;;
29908;SDS011;36247;51.952;6.146;2022-09-09T06:01:50;11.10;;;3.55;;
29908;SDS011;36247;51.952;6.146;2022-09-09T06:04:35;7.00;;;3.70;;
29908;SDS011;36247;51.952;6.146;2022-09-09T06:07:02;8.43;;;4.35;;
29908;SDS011;36247;51.952;6.146;2022-09-09T06:09:28;8.05;;;3.80;;
29908;SDS011;36247;51.952;6.146;2022-09-09T06:11:55;8.80;;;3.70;;
29908;SDS011;36247;51.952;6.146;2022-09-09T06:14:22;13.73;;;4.93;;
29908;SDS011;36247;51.952;6.146;2022-09-09T06:16:49;9.38;;;3.40;;
29908;SDS011;36247;51.952;6.146;2022-09-09T06:19:19;10.48;;;3.88;;
29908;SDS011;36247;51.952;6.146;2022-09-09T06:21:46;11.40;;;3.88;;
29908;SDS011;36247;51.952;6.146;2022-09-09T06:24:13;9.25;;;3.60;;
29908;SDS011;36247;51.952;6.146;2022-09-09T06:26:42;9.75;;;3.42;;
29908;SDS011;36247;51.952;6.146;2022-09-09T06:29:12;12.82;;;4.15;;
29908;SDS011;36247;51.952;6.146;2022-09-09T06:31:39;12.23;;;3.75;;
29908;SDS011;36247;51.952;6.146;2022-09-09T06:34:13;12.63;;;4.32;;
29908;SDS011;36247;51.952;6.146;2022-09-09T06:36:43;7.88;;;3.20;;
29908;SDS011;36247;51.952;6.146;2022-09-09T06:39:11;11.15;;;3.78;;
29908;SDS011;36247;51.952;6.146;2022-09-09T06:41:38;10.40;;;2.92;;
29908;SDS011;36247;51.952;6.146;2022-09-09T06:44:05;14.38;;;3.65;;
29908;SDS011;36247;51.952;6.146;2022-09-09T06:46:38;8.63;;;3.03;;
29908;SDS011;36247;51.952;6.146;2022-09-09T06:49:05;7.78;;;2.95;;
29908;SDS011;36247;51.952;6.146;2022-09-09T06:51:34;12.88;;;2.88;;
29908;SDS011;36247;51.952;6.146;2022-09-09T06:54:03;10.25;;;3.95;;
29908;SDS011;36247;51.952;6.146;2022-09-09T06:58:59;8.38;;;3.05;;
29908;SDS011;36247;51.952;6.146;2022-09-09T07:01:31;7.63;;;2.80;;
29908;SDS011;36247;51.952;6.146;2022-09-09T07:04:02;8.18;;;3.00;;
29908;SDS011;36247;51.952;6.146;2022-09-09T07:06:37;8.90;;;3.75;;
29908;SDS011;36247;51.952;6.146;2022-09-09T07:09:09;11.75;;;3.88;;
29908;SDS011;36247;51.952;6.146;2022-09-09T07:11:42;10.40;;;3.10;;
29908;SDS011;36247;51.952;6.146;2022-09-09T07:14:15;9.88;;;3.78;;
29908;SDS011;36247;51.952;6.146;2022-09-09T07:16:44;10.32;;;3.30;;
29908;SDS011;36247;51.952;6.146;2022-09-09T07:19:11;11.07;;;3.40;;
29908;SDS011;36247;51.952;6.146;2022-09-09T07:21:39;6.90;;;3.22;;
29908;SDS011;36247;51.952;6.146;2022-09-09T07:24:07;9.02;;;3.90;;
29908;SDS011;36247;51.952;6.146;2022-09-09T07:28:55;7.85;;;3.35;;
29908;SDS011;36247;51.952;6.146;2022-09-09T07:31:23;11.82;;;3.70;;
29908;SDS011;36247;51.952;6.146;2022-09-09T07:33:55;7.20;;;3.40;;
29908;SDS011;36247;51.952;6.146;2022-09-09T07:36:22;6.57;;;3.22;;
29908;SDS011;36247;51.952;6.146;2022-09-09T07:38:52;16.38;;;4.63;;
29908;SDS011;36247;51.952;6.146;2022-09-09T07:41:21;7.63;;;3.00;;
29908;SDS011;36247;51.952;6.146;2022-09-09T07:43:50;8.10;;;3.20;;
29908;SDS011;36247;51.952;6.146;2022-09-09T07:46:19;9.40;;;3.33;;
29908;SDS011;36247;51.952;6.146;2022-09-09T07:48:48;14.13;;;3.47;;
29908;SDS011;36247;51.952;6.146;2022-09-09T07:51:27;10.88;;;3.22;;
29908;SDS011;36247;51.952;6.146;2022-09-09T07:53:55;12.63;;;4.80;;
29908;SDS011;36247;51.952;6.146;2022-09-09T07:56:28;8.57;;;3.08;;
29908;SDS011;36247;51.952;6.146;2022-09-09T07:58:56;10.30;;;3.83;;
29908;SDS011;36247;51.952;6.146;2022-09-09T08:01:24;10.80;;;3.55;;
29908;SDS011;36247;51.952;6.146;2022-09-09T08:03:59;11.85;;;3.33;;
29908;SDS011;36247;51.952;6.146;2022-09-09T08:06:28;10.02;;;3.35;;
29908;SDS011;36247;51.952;6.146;2022-09-09T08:08:55;9.02;;;3.53;;
29908;SDS011;36247;51.952;6.146;2022-09-09T08:11:23;7.45;;;3.15;;
29908;SDS011;36247;51.952;6.146;2022-09-09T08:13:50;7.60;;;2.63;;
29908;SDS011;36247;51.952;6.146;2022-09-09T08:16:19;11.25;;;3.13;;
29908;SDS011;36247;51.952;6.146;2022-09-09T08:18:48;11.23;;;3.40;;
29908;SDS011;36247;51.952;6.146;2022-09-09T08:21:16;10.02;;;3.63;;
29908;SDS011;36247;51.952;6.146;2022-09-09T08:23:44;8.05;;;3.63;;
29908;SDS011;36247;51.952;6.146;2022-09-09T08:26:12;5.18;;;2.88;;
29908;SDS011;36247;51.952;6.146;2022-09-09T08:28:40;8.02;;;2.40;;
29908;SDS011;36247;51.952;6.146;2022-09-09T08:31:07;7.45;;;2.50;;
29908;SDS011;36247;51.952;6.146;2022-09-09T08:33:35;8.95;;;2.83;;
29908;SDS011;36247;51.952;6.146;2022-09-09T08:36:05;7.97;;;2.72;;
29908;SDS011;36247;51.952;6.146;2022-09-09T08:38:32;8.35;;;3.67;;
29908;SDS011;36247;51.952;6.146;2022-09-09T08:41:27;9.80;;;2.42;;
29908;SDS011;36247;51.952;6.146;2022-09-09T08:43:47;11.52;;;2.90;;
29908;SDS011;36247;51.952;6.146;2022-09-09T08:46:24;8.15;;;2.60;;
29908;SDS011;36247;51.952;6.146;2022-09-09T08:51:50;8.18;;;2.30;;
29908;SDS011;36247;51.952;6.146;2022-09-09T08:54:20;6.95;;;2.33;;
29908;SDS011;36247;51.952;6.146;2022-09-09T08:56:47;10.02;;;2.53;;
29908;SDS011;36247;51.952;6.146;2022-09-09T08:59:14;5.55;;;2.47;;
29908;SDS011;36247;51.952;6.146;2022-09-09T09:10:10;7.53;;;2.95;;
29908;SDS011;36247;51.952;6.146;2022-09-09T09:12:43;12.15;;;3.20;;
29908;SDS011;36247;51.952;6.146;2022-09-09T09:17:49;14.32;;;2.92;;
29908;SDS011;36247;51.952;6.146;2022-09-09T09:20:16;7.80;;;2.63;;
29908;SDS011;36247;51.952;6.146;2022-09-09T09:30:49;5.45;;;2.65;;
29908;SDS011;36247;51.952;6.146;2022-09-09T09:33:23;6.35;;;1.98;;
29908;SDS011;36247;51.952;6.146;2022-09-09T09:35:50;3.90;;;2.17;;
29908;SDS011;36247;51.952;6.146;2022-09-09T09:38:22;9.15;;;2.42;;
29908;SDS011;36247;51.952;6.146;2022-09-09T09:40:58;10.32;;;2.33;;
29908;SDS011;36247;51.952;6.146;2022-09-09T09:43:28;8.00;;;2.95;;
29908;SDS011;36247;51.952;6.146;2022-09-09T09:45:57;4.07;;;1.77;;
29908;SDS011;36247;51.952;6.146;2022-09-09T09:48:25;6.07;;;1.83;;
29908;SDS011;36247;51.952;6.146;2022-09-09T09:50:55;3.67;;;1.70;;
29908;SDS011;36247;51.952;6.146;2022-09-09T09:53:28;5.70;;;2.17;;
29908;SDS011;36247;51.952;6.146;2022-09-09T09:56:01;11.43;;;2.17;;
29908;SDS011;36247;51.952;6.146;2022-09-09T09:58:31;4.93;;;1.80;;
29908;SDS011;36247;51.952;6.146;2022-09-09T10:01:00;4.60;;;1.88;;
29908;SDS011;36247;51.952;6.146;2022-09-09T10:03:30;3.90;;;1.73;;
29908;SDS011;36247;51.952;6.146;2022-09-09T10:05:58;8.50;;;2.20;;
29908;SDS011;36247;51.952;6.146;2022-09-09T10:08:24;7.93;;;2.70;;
29908;SDS011;36247;51.952;6.146;2022-09-09T10:22:01;7.10;;;2.03;;
29908;SDS011;36247;51.952;6.146;2022-09-09T10:26:59;7.03;;;2.00;;
29908;SDS011;36247;51.952;6.146;2022-09-09T10:29:32;6.55;;;1.90;;
29908;SDS011;36247;51.952;6.146;2022-09-09T10:34:56;6.95;;;1.50;;
29908;SDS011;36247;51.952;6.146;2022-09-09T10:40:20;8.27;;;2.47;;
29908;SDS011;36247;51.952;6.146;2022-09-09T10:42:56;4.15;;;1.90;;
29908;SDS011;36247;51.952;6.146;2022-09-09T10:45:30;10.02;;;3.13;;
29908;SDS011;36247;51.952;6.146;2022-09-09T10:48:16;4.63;;;1.75;;
29908;SDS011;36247;51.952;6.146;2022-09-09T10:51:02;8.65;;;1.80;;
29908;SDS011;36247;51.952;6.146;2022-09-09T10:54:09;5.07;;;1.90;;
29908;SDS011;36247;51.952;6.146;2022-09-09T10:56:52;6.75;;;1.90;;
29908;SDS011;36247;51.952;6.146;2022-09-09T10:59:24;10.88;;;2.10;;
29908;SDS011;36247;51.952;6.146;2022-09-09T11:04:56;7.57;;;2.58;;
29908;SDS011;36247;51.952;6.146;2022-09-09T11:07:34;9.57;;;2.08;;
29908;SDS011;36247;51.952;6.146;2022-09-09T11:10:02;7.57;;;2.40;;
29908;SDS011;36247;51.952;6.146;2022-09-09T11:12:42;7.55;;;1.83;;
29908;SDS011;36247;51.952;6.146;2022-09-09T11:15:23;8.68;;;2.38;;
29908;SDS011;36247;51.952;6.146;2022-09-09T11:17:58;7.30;;;2.13;;
29908;SDS011;36247;51.952;6.146;2022-09-09T11:20:27;10.85;;;3.50;;
29908;SDS011;36247;51.952;6.146;2022-09-09T11:23:05;5.47;;;1.90;;
29908;SDS011;36247;51.952;6.146;2022-09-09T11:25:48;3.17;;;1.48;;
29908;SDS011;36247;51.952;6.146;2022-09-09T11:28:32;7.63;;;2.00;;
29908;SDS011;36247;51.952;6.146;2022-09-09T11:33:36;4.60;;;2.10;;
29908;SDS011;36247;51.952;6.146;2022-09-09T11:36:16;8.52;;;1.98;;
29908;SDS011;36247;51.952;6.146;2022-09-09T11:38:47;6.50;;;1.90;;
29908;SDS011;36247;51.952;6.146;2022-09-09T11:41:17;9.02;;;2.42;;
29908;SDS011;36247;51.952;6.146;2022-09-09T11:43:52;5.50;;;1.90;;
29908;SDS011;36247;51.952;6.146;2022-09-09T11:46:22;5.10;;;1.70;;
29908;SDS011;36247;51.952;6.146;2022-09-09T11:49:01;4.63;;;2.03;;
29908;SDS011;36247;51.952;6.146;2022-09-09T11:51:29;5.50;;;2.17;;
29908;SDS011;36247;51.952;6.146;2022-09-09T11:56:44;7.75;;;2.63;;
29908;SDS011;36247;51.952;6.146;2022-09-09T11:59:21;7.78;;;3.28;;
29908;SDS011;36247;51.952;6.146;2022-09-09T12:04:28;6.78;;;2.47;;
29908;SDS011;36247;51.952;6.146;2022-09-09T12:07:29;4.78;;;2.40;;
29908;SDS011;36247;51.952;6.146;2022-09-09T12:10:19;8.70;;;2.45;;
29908;SDS011;36247;51.952;6.146;2022-09-09T12:12:48;6.32;;;2.35;;
29908;SDS011;36247;51.952;6.146;2022-09-09T12:15:18;4.18;;;1.75;;
29908;SDS011;36247;51.952;6.146;2022-09-09T12:17:51;3.97;;;2.00;;
29908;SDS011;36247;51.952;6.146;2022-09-09T12:25:29;4.72;;;2.17;;
29908;SDS011;36247;51.952;6.146;2022-09-09T12:28:04;5.07;;;1.73;;
29908;SDS011;36247;51.952;6.146;2022-09-09T12:30:37;6.38;;;2.00;;
29908;SDS011;36247;51.952;6.146;2022-09-09T12:33:33;7.45;;;2.05;;
29908;SDS011;36247;51.952;6.146;2022-09-09T12:36:04;2.60;;;1.58;;
29908;SDS011;36247;51.952;6.146;2022-09-09T12:38:38;3.13;;;2.08;;
29908;SDS011;36247;51.952;6.146;2022-09-09T12:41:05;7.80;;;1.98;;
29908;SDS011;36247;51.952;6.146;2022-09-09T12:43:31;6.53;;;2.15;;
29908;SDS011;36247;51.952;6.146;2022-09-09T12:45:59;3.28;;;1.98;;
29908;SDS011;36247;51.952;6.146;2022-09-09T12:48:46;2.58;;;2.08;;
29908;SDS011;36247;51.952;6.146;2022-09-09T12:51:31;7.78;;;2.70;;
29908;SDS011;36247;51.952;6.146;2022-09-09T12:53:58;7.65;;;2.20;;
29908;SDS011;36247;51.952;6.146;2022-09-09T12:56:26;3.72;;;1.80;;
29908;SDS011;36247;51.952;6.146;2022-09-09T12:58:55;4.32;;;2.50;;
29908;SDS011;36247;51.952;6.146;2022-09-09T13:01:23;3.67;;;2.60;;
29908;SDS011;36247;51.952;6.146;2022-09-09T13:03:50;5.55;;;2.22;;
29908;SDS011;36247;51.952;6.146;2022-09-09T13:06:23;4.07;;;2.20;;
29908;SDS011;36247;51.952;6.146;2022-09-09T13:08:51;6.15;;;2.03;;
29908;SDS011;36247;51.952;6.146;2022-09-09T13:11:20;2.47;;;1.70;;
29908;SDS011;36247;51.952;6.146;2022-09-09T13:13:54;4.10;;;2.08;;
29908;SDS011;36247;51.952;6.146;2022-09-09T13:16:23;5.22;;;2.10;;
29908;SDS011;36247;51.952;6.146;2022-09-09T13:21:30;5.03;;;2.47;;
29908;SDS011;36247;51.952;6.146;2022-09-09T13:23:57;4.78;;;2.20;;
29908;SDS011;36247;51.952;6.146;2022-09-09T13:26:28;4.97;;;2.42;;
29908;SDS011;36247;51.952;6.146;2022-09-09T13:28:55;7.28;;;2.80;;
29908;SDS011;36247;51.952;6.146;2022-09-09T13:33:58;4.20;;;2.10;;
29908;SDS011;36247;51.952;6.146;2022-09-09T13:36:32;8.45;;;2.88;;
29908;SDS011;36247;51.952;6.146;2022-09-09T13:39:02;4.82;;;2.58;;
29908;SDS011;36247;51.952;6.146;2022-09-09T13:41:33;6.53;;;2.92;;
29908;SDS011;36247;51.952;6.146;2022-09-09T13:47:17;6.20;;;2.80;;
29908;SDS011;36247;51.952;6.146;2022-09-09T13:49:45;5.43;;;3.35;;
29908;SDS011;36247;51.952;6.146;2022-09-09T13:52:12;5.90;;;2.75;;
29908;SDS011;36247;51.952;6.146;2022-09-09T13:54:39;7.00;;;2.63;;
29908;SDS011;36247;51.952;6.146;2022-09-09T13:57:05;3.28;;;2.35;;
29908;SDS011;36247;51.952;6.146;2022-09-09T13:59:40;4.53;;;2.10;;
29908;SDS011;36247;51.952;6.146;2022-09-09T14:02:06;7.28;;;3.70;;
29908;SDS011;36247;51.952;6.146;2022-09-09T14:04:32;9.85;;;2.80;;
29908;SDS011;36247;51.952;6.146;2022-09-09T14:07:00;8.68;;;2.53;;
29908;SDS011;36247;51.952;6.146;2022-09-09T14:09:26;4.78;;;2.30;;
29908;SDS011;36247;51.952;6.146;2022-09-09T14:11:52;8.55;;;2.63;;
29908;SDS011;36247;51.952;6.146;2022-09-09T14:14:17;6.82;;;2.90;;
29908;SDS011;36247;51.952;6.146;2022-09-09T14:16:44;11.57;;;3.60;;
29908;SDS011;36247;51.952;6.146;2022-09-09T14:19:09;8.38;;;3.72;;
29908;SDS011;36247;51.952;6.146;2022-09-09T14:21:35;9.07;;;3.47;;
29908;SDS011;36247;51.952;6.146;2022-09-09T14:24:00;10.95;;;4.55;;
29908;SDS011;36247;51.952;6.146;2022-09-09T14:26:26;7.90;;;4.40;;
29908;SDS011;36247;51.952;6.146;2022-09-09T14:28:53;11.05;;;3.78;;
29908;SDS011;36247;51.952;6.146;2022-09-09T14:31:19;8.77;;;4.05;;
29908;SDS011;36247;51.952;6.146;2022-09-09T14:33:44;6.53;;;3.80;;
29908;SDS011;36247;51.952;6.146;2022-09-09T14:36:10;8.77;;;4.20;;
29908;SDS011;36247;51.952;6.146;2022-09-09T14:38:37;10.70;;;4.50;;
29908;SDS011;36247;51.952;6.146;2022-09-09T14:41:05;9.02;;;3.67;;
29908;SDS011;36247;51.952;6.146;2022-09-09T14:43:31;10.57;;;4.40;;
29908;SDS011;36247;51.952;6.146;2022-09-09T14:45:58;9.80;;;3.42;;
29908;SDS011;36247;51.952;6.146;2022-09-09T14:48:30;9.35;;;4.32;;
29908;SDS011;36247;51.952;6.146;2022-09-09T14:50:56;7.55;;;3.65;;
29908;SDS011;36247;51.952;6.146;2022-09-09T14:53:21;7.40;;;3.40;;
29908;SDS011;36247;51.952;6.146;2022-09-09T14:55:47;6.57;;;3.83;;
29908;SDS011;36247;51.952;6.146;2022-09-09T14:58:13;6.72;;;3.63;;
29908;SDS011;36247;51.952;6.146;2022-09-09T15:00:38;5.80;;;3.30;;
29908;SDS011;36247;51.952;6.146;2022-09-09T15:03:04;9.38;;;3.22;;
29908;SDS011;36247;51.952;6.146;2022-09-09T15:05:31;5.45;;;2.45;;
29908;SDS011;36247;51.952;6.146;2022-09-09T15:07:56;5.70;;;2.65;;
29908;SDS011;36247;51.952;6.146;2022-09-09T15:10:23;5.00;;;2.28;;
29908;SDS011;36247;51.952;6.146;2022-09-09T15:12:49;6.82;;;2.95;;
29908;SDS011;36247;51.952;6.146;2022-09-09T15:15:15;4.78;;;2.83;;
29908;SDS011;36247;51.952;6.146;2022-09-09T15:17:40;9.20;;;3.10;;
29908;SDS011;36247;51.952;6.146;2022-09-09T15:20:06;6.45;;;3.20;;
29908;SDS011;36247;51.952;6.146;2022-09-09T15:22:32;5.13;;;2.80;;
29908;SDS011;36247;51.952;6.146;2022-09-09T15:24:58;8.95;;;3.17;;
29908;SDS011;36247;51.952;6.146;2022-09-09T15:27:25;7.10;;;2.15;;
29908;SDS011;36247;51.952;6.146;2022-09-09T15:29:50;5.95;;;2.90;;
29908;SDS011;36247;51.952;6.146;2022-09-09T15:32:17;6.38;;;2.78;;
29908;SDS011;36247;51.952;6.146;2022-09-09T15:34:46;7.45;;;2.58;;
29908;SDS011;36247;51.952;6.146;2022-09-09T15:37:12;8.88;;;2.63;;
29908;SDS011;36247;51.952;6.146;2022-09-09T15:39:40;10.63;;;2.40;;
29908;SDS011;36247;51.952;6.146;2022-09-09T15:42:06;6.90;;;2.45;;
29908;SDS011;36247;51.952;6.146;2022-09-09T15:44:40;6.15;;;2.08;;
29908;SDS011;36247;51.952;6.146;2022-09-09T15:47:07;6.88;;;2.47;;
29908;SDS011;36247;51.952;6.146;2022-09-09T15:49:35;6.65;;;2.53;;
29908;SDS011;36247;51.952;6.146;2022-09-09T15:52:01;7.35;;;2.28;;
29908;SDS011;36247;51.952;6.146;2022-09-09T15:54:30;7.30;;;2.42;;
29908;SDS011;36247;51.952;6.146;2022-09-09T15:56:58;6.55;;;1.83;;
29908;SDS011;36247;51.952;6.146;2022-09-09T15:59:27;7.53;;;2.33;;
29908;SDS011;36247;51.952;6.146;2022-09-09T16:01:54;5.40;;;1.75;;
29908;SDS011;36247;51.952;6.146;2022-09-09T16:04:21;5.28;;;1.80;;
29908;SDS011;36247;51.952;6.146;2022-09-09T16:06:51;7.10;;;2.72;;
29908;SDS011;36247;51.952;6.146;2022-09-09T16:09:18;4.82;;;2.17;;
29908;SDS011;36247;51.952;6.146;2022-09-09T16:11:44;4.75;;;2.22;;
29908;SDS011;36247;51.952;6.146;2022-09-09T16:14:11;5.22;;;2.45;;
29908;SDS011;36247;51.952;6.146;2022-09-09T16:16:38;6.15;;;2.35;;
29908;SDS011;36247;51.952;6.146;2022-09-09T16:19:04;4.90;;;2.13;;
29908;SDS011;36247;51.952;6.146;2022-09-09T16:21:33;6.13;;;2.70;;
29908;SDS011;36247;51.952;6.146;2022-09-09T16:24:02;6.47;;;2.20;;
29908;SDS011;36247;51.952;6.146;2022-09-09T16:26:29;3.50;;;2.15;;
29908;SDS011;36247;51.952;6.146;2022-09-09T16:28:56;4.22;;;2.20;;
29908;SDS011;36247;51.952;6.146;2022-09-09T16:31:24;5.40;;;2.53;;
29908;SDS011;36247;51.952;6.146;2022-09-09T16:33:50;5.45;;;2.28;;
29908;SDS011;36247;51.952;6.146;2022-09-09T16:36:20;5.80;;;2.00;;
29908;SDS011;36247;51.952;6.146;2022-09-09T16:38:57;4.00;;;2.13;;
29908;SDS011;36247;51.952;6.146;2022-09-09T16:41:25;5.80;;;2.25;;
29908;SDS011;36247;51.952;6.146;2022-09-09T16:43:53;3.83;;;1.30;;
29908;SDS011;36247;51.952;6.146;2022-09-09T16:46:20;1.70;;;0.90;;
29908;SDS011;36247;51.952;6.146;2022-09-09T16:48:47;2.92;;;1.33;;
29908;SDS011;36247;51.952;6.146;2022-09-09T16:51:21;3.22;;;1.40;;
29908;SDS011;36247;51.952;6.146;2022-09-09T16:53:52;4.53;;;1.20;;